createdAt,value
2022-09-27T00:01:24.379Z,10.27
2022-09-27T00:04:27.470Z,10.28
2022-09-27T00:07:30.187Z,10.33
2022-09-27T00:10:34.166Z,10.36
2022-09-27T00:13:36.798Z,10.37
2022-09-27T00:16:40.436Z,10.32
2022-09-27T00:19:43.055Z,10.30
2022-09-27T00:22:45.684Z,10.30
2022-09-27T00:25:57.579Z,10.34
2022-09-27T00:29:00.373Z,10.32
2022-09-27T00:32:03.080Z,10.31
2022-09-27T00:35:06.464Z,10.29
2022-09-27T00:38:09.053Z,10.29
2022-09-27T00:41:17.160Z,10.37
2022-09-27T00:45:03.420Z,10.35
2022-09-27T00:48:06.993Z,10.35
2022-09-27T00:51:09.944Z,10.36
2022-09-27T00:54:14.704Z,10.40
2022-09-27T00:57:19.070Z,10.41
2022-09-27T01:00:22.766Z,10.43
2022-09-27T01:03:27.388Z,10.40
2022-09-27T01:06:30.140Z,10.37
2022-09-27T01:09:33.088Z,10.48
2022-09-27T01:12:46.066Z,10.43
2022-09-27T01:15:55.301Z,10.46
2022-09-27T01:19:08.383Z,10.53
2022-09-27T01:22:14.158Z,10.58
2022-09-27T01:25:34.772Z,10.60
2022-09-27T01:28:48.404Z,10.59
2022-09-27T01:31:57.282Z,10.57
2022-09-27T01:35:04.504Z,10.67
2022-09-27T01:38:13.973Z,10.73
2022-09-27T01:41:23.117Z,10.78
2022-09-27T01:44:29.611Z,10.78
2022-09-27T01:47:39.426Z,10.91
2022-09-27T01:50:45.986Z,10.99
2022-09-27T01:53:49.982Z,11.01
2022-09-27T01:56:56.108Z,11.05
2022-09-27T02:00:01.430Z,11.14
2022-09-27T02:03:08.659Z,11.18
2022-09-27T02:06:14.027Z,11.20
2022-09-27T02:09:19.167Z,11.23
2022-09-27T02:12:23.761Z,11.25
2022-09-27T02:15:27.707Z,11.23
2022-09-27T02:18:35.843Z,11.08
2022-09-27T02:21:43.959Z,10.94
2022-09-27T02:24:49.870Z,10.89
2022-09-27T02:27:58.281Z,10.87
2022-09-27T02:31:00.964Z,10.87
2022-09-27T02:34:07.569Z,10.72
2022-09-27T02:37:10.222Z,10.65
2022-09-27T02:40:13.824Z,10.54
2022-09-27T02:43:17.379Z,10.34
2022-09-27T02:46:32.405Z,10.16
2022-09-27T02:49:46.414Z,10.04
2022-09-27T02:52:51.235Z,9.90
2022-09-27T02:55:59.433Z,9.85
2022-09-27T02:59:08.689Z,9.73
2022-09-27T03:02:15.115Z,9.67
2022-09-27T03:05:22.505Z,9.56
2022-09-27T03:08:25.312Z,9.55
2022-09-27T03:11:28.116Z,9.50
2022-09-27T03:14:30.654Z,9.52
2022-09-27T03:17:33.278Z,9.67
2022-09-27T03:20:37.172Z,9.75
2022-09-27T03:23:39.971Z,9.81
2022-09-27T03:26:42.644Z,9.91
2022-09-27T03:29:45.285Z,9.95
2022-09-27T03:32:47.898Z,10.04
2022-09-27T03:35:51.810Z,10.02
2022-09-27T03:38:54.524Z,10.01
2022-09-27T03:41:57.421Z,9.92
2022-09-27T03:44:59.960Z,9.82
2022-09-27T03:48:02.982Z,9.94
2022-09-27T03:51:07.342Z,10.02
2022-09-27T03:54:10.047Z,10.13
2022-09-27T03:57:12.917Z,10.18
2022-09-27T04:00:16.011Z,10.27
2022-09-27T04:03:19.867Z,10.29
2022-09-27T04:06:23.979Z,10.39
2022-09-27T04:09:26.718Z,10.33
2022-09-27T04:12:30.362Z,10.37
2022-09-27T04:15:33.000Z,10.36
2022-09-27T04:18:35.646Z,10.35
2022-09-27T04:21:39.630Z,10.35
2022-09-27T04:24:42.246Z,10.36
2022-09-27T04:27:46.496Z,10.50
2022-09-27T04:30:49.272Z,10.53
2022-09-27T04:33:52.002Z,10.56
2022-09-27T04:36:55.152Z,10.53
2022-09-27T04:39:57.816Z,10.56
2022-09-27T04:43:00.535Z,10.46
2022-09-27T04:46:03.163Z,10.46
2022-09-27T04:49:05.813Z,10.39
2022-09-27T04:52:09.812Z,10.46
2022-09-27T04:55:12.623Z,10.62
2022-09-27T04:58:15.281Z,10.71
2022-09-27T05:01:18.047Z,10.69
2022-09-27T05:04:21.809Z,10.66
2022-09-27T05:07:25.556Z,10.63
2022-09-27T05:10:28.132Z,10.49
2022-09-27T05:13:30.637Z,10.56
2022-09-27T05:16:34.499Z,10.41
2022-09-27T05:19:38.518Z,10.29
2022-09-27T05:22:42.499Z,10.27
2022-09-27T05:25:45.404Z,10.23
2022-09-27T05:28:48.020Z,10.23
2022-09-27T05:31:50.935Z,10.34
2022-09-27T05:34:54.257Z,10.32
2022-09-27T05:38:00.033Z,10.21
2022-09-27T05:41:03.467Z,10.33
2022-09-27T05:44:06.242Z,10.32
2022-09-27T05:47:09.352Z,10.29
2022-09-27T05:50:12.030Z,10.30
2022-09-27T05:53:16.020Z,10.29
2022-09-27T05:56:18.898Z,10.24
2022-09-27T05:59:21.478Z,10.29
2022-09-27T06:02:24.202Z,10.28
2022-09-27T06:05:29.293Z,10.38
2022-09-27T06:08:34.269Z,10.35
2022-09-27T06:11:37.151Z,10.36
2022-09-27T06:14:40.468Z,10.40
2022-09-27T06:17:43.025Z,10.40
2022-09-27T06:20:46.244Z,10.45
2022-09-27T06:23:54.098Z,10.60
2022-09-27T06:26:57.153Z,10.68
2022-09-27T06:30:00.083Z,10.84
2022-09-27T06:33:03.973Z,10.93
2022-09-27T06:36:08.042Z,10.96
2022-09-27T06:39:12.142Z,11.15
2022-09-27T06:42:14.714Z,11.36
2022-09-27T06:45:17.756Z,11.56
2022-09-27T06:48:20.498Z,11.70
2022-09-27T06:51:23.228Z,11.68
2022-09-27T06:54:27.162Z,11.47
2022-09-27T06:57:47.237Z,11.25
2022-09-27T07:00:50.624Z,11.04
2022-09-27T07:03:53.241Z,11.16
2022-09-27T07:06:55.852Z,11.17
2022-09-27T07:09:59.919Z,11.08
2022-09-27T07:13:05.375Z,11.32
2022-09-27T07:16:08.479Z,11.41
2022-09-27T07:19:13.523Z,10.86
2022-09-27T07:22:16.263Z,10.76
2022-09-27T07:25:20.311Z,11.00
2022-09-27T07:28:23.019Z,11.15
2022-09-27T07:31:26.429Z,11.00
2022-09-27T07:34:29.132Z,10.97
2022-09-27T07:37:33.166Z,10.64
2022-09-27T07:40:38.056Z,10.75
2022-09-27T07:43:41.152Z,10.51
2022-09-27T07:46:43.789Z,10.96
2022-09-27T07:49:46.552Z,11.13
2022-09-27T07:52:51.050Z,11.47
2022-09-27T07:55:55.448Z,11.50
2022-09-27T07:58:58.505Z,11.45
2022-09-27T08:02:02.238Z,11.79
2022-09-27T08:05:05.248Z,12.05
2022-09-27T08:08:08.095Z,12.96
2022-09-27T08:11:16.758Z,13.13
2022-09-27T08:14:19.451Z,13.05
2022-09-27T08:17:22.046Z,12.26
2022-09-27T08:20:24.851Z,12.22
2022-09-27T08:23:27.463Z,11.89
2022-09-27T08:26:31.467Z,11.54
2022-09-27T08:29:34.119Z,11.79
2022-09-27T08:32:37.844Z,12.02
2022-09-27T08:35:40.398Z,12.46
2022-09-27T08:38:43.057Z,12.68
2022-09-27T08:41:50.488Z,13.53
2022-09-27T08:45:00.964Z,13.24
2022-09-27T08:48:06.233Z,13.28
2022-09-27T08:51:12.986Z,13.23
2022-09-27T08:54:19.051Z,13.36
2022-09-27T08:57:25.158Z,13.36
2022-09-27T09:00:29.797Z,13.30
2022-09-27T09:03:35.247Z,13.29
2022-09-27T09:06:42.159Z,13.12
2022-09-27T09:09:49.909Z,13.17
2022-09-27T09:12:59.002Z,13.09
2022-09-27T09:16:06.718Z,12.87
2022-09-27T09:19:21.335Z,12.96
2022-09-27T09:22:36.679Z,13.20
2022-09-27T09:25:45.231Z,13.40
2022-09-27T09:29:00.592Z,13.70
2022-09-27T09:32:10.450Z,13.75
2022-09-27T09:35:15.423Z,13.02
2022-09-27T09:38:22.628Z,12.79
2022-09-27T09:41:29.637Z,12.70
2022-09-27T09:44:38.830Z,12.65
2022-09-27T09:47:44.840Z,12.94
2022-09-27T09:50:49.516Z,13.13
2022-09-27T09:53:55.518Z,13.52
2022-09-27T09:57:03.413Z,14.04
2022-09-27T10:00:14.750Z,14.15
2022-09-27T10:03:17.547Z,14.17
2022-09-27T10:06:20.414Z,14.35
2022-09-27T10:09:26.492Z,14.48
2022-09-27T10:12:29.702Z,14.18
2022-09-27T10:15:34.393Z,15.48
2022-09-27T10:18:38.486Z,16.75
2022-09-27T10:21:45.166Z,16.18
2022-09-27T10:24:56.136Z,15.71
2022-09-27T10:28:00.179Z,15.47
2022-09-27T10:31:06.138Z,14.77
2022-09-27T10:34:18.954Z,14.38
2022-09-27T10:37:23.950Z,14.13
2022-09-27T10:40:29.976Z,14.15
2022-09-27T10:43:35.348Z,14.80
2022-09-27T10:46:39.370Z,15.32
2022-09-27T10:49:42.707Z,15.82
2022-09-27T10:52:45.446Z,16.48
2022-09-27T10:55:49.412Z,15.62
2022-09-27T10:58:52.192Z,15.71
2022-09-27T11:01:56.277Z,16.71
2022-09-27T11:05:13.934Z,16.93
2022-09-27T11:08:24.397Z,15.46
2022-09-27T11:11:29.819Z,15.77
2022-09-27T11:14:33.170Z,15.90
2022-09-27T11:17:44.276Z,16.46
2022-09-27T11:20:49.688Z,15.76
2022-09-27T11:24:13.316Z,16.38
2022-09-27T11:27:24.198Z,16.83
2022-09-27T11:30:33.597Z,17.11
2022-09-27T11:33:46.215Z,16.77
2022-09-27T11:36:59.314Z,16.74
2022-09-27T11:40:10.192Z,17.03
2022-09-27T11:43:50.869Z,15.94
2022-09-27T11:46:58.323Z,15.22
2022-09-27T11:50:15.712Z,16.32
2022-09-27T11:53:29.759Z,16.55
2022-09-27T11:56:39.644Z,16.69
2022-09-27T11:59:57.895Z,16.12
2022-09-27T12:03:16.438Z,15.01
2022-09-27T12:06:24.238Z,14.01
2022-09-27T12:09:30.657Z,13.42
2022-09-27T12:12:34.545Z,12.50
2022-09-27T12:15:41.409Z,12.26
2022-09-27T12:18:47.992Z,12.28
2022-09-27T12:21:56.293Z,11.27
2022-09-27T12:24:58.969Z,10.43
2022-09-27T12:28:05.812Z,9.99
2022-09-27T12:31:30.510Z,9.60
2022-09-27T12:34:39.115Z,10.18
2022-09-27T12:37:45.817Z,11.16
2022-09-27T12:40:51.261Z,10.73
2022-09-27T12:43:53.988Z,10.97
2022-09-27T12:47:02.816Z,11.87
2022-09-27T12:50:12.476Z,12.28
2022-09-27T12:53:23.332Z,13.20
2022-09-27T12:56:36.354Z,13.81
2022-09-27T12:59:48.169Z,15.52
2022-09-27T13:03:26.256Z,16.94
2022-09-27T13:06:42.276Z,22.66
2022-09-27T13:09:57.235Z,19.40
2022-09-27T13:13:01.319Z,18.00
2022-09-27T13:16:04.481Z,15.97
2022-09-27T13:19:07.127Z,15.17
2022-09-27T13:22:11.306Z,14.53
2022-09-27T13:25:55.379Z,14.30
2022-09-27T13:29:07.022Z,13.64
2022-09-27T13:32:18.412Z,12.98
2022-09-27T13:35:23.250Z,12.31
2022-09-27T13:38:25.859Z,11.65
2022-09-27T13:41:33.575Z,11.48
2022-09-27T13:44:43.068Z,11.82
2022-09-27T13:47:47.718Z,11.89
2022-09-27T13:50:56.461Z,11.76
2022-09-27T13:54:00.848Z,11.88
2022-09-27T13:57:25.951Z,11.74
2022-09-27T14:00:31.874Z,11.75
2022-09-27T14:03:37.890Z,11.66
2022-09-27T14:06:45.283Z,11.45
2022-09-27T14:09:49.609Z,11.03
2022-09-27T14:12:53.986Z,10.25
2022-09-27T14:15:57.316Z,10.07
2022-09-27T14:19:00.934Z,10.08
2022-09-27T14:22:03.490Z,9.93
2022-09-27T14:25:18.039Z,9.79
2022-09-27T14:28:24.277Z,9.78
2022-09-27T14:31:27.971Z,9.88
2022-09-27T14:34:30.555Z,10.10
2022-09-27T14:37:33.205Z,10.93
2022-09-27T14:40:40.131Z,13.96
2022-09-27T14:43:45.891Z,13.88
2022-09-27T14:46:49.666Z,13.35
2022-09-27T14:49:53.644Z,13.08
2022-09-27T14:52:59.444Z,12.78
2022-09-27T14:56:02.998Z,12.83
2022-09-27T14:59:09.291Z,12.96
2022-09-27T15:02:20.147Z,14.64
2022-09-27T15:05:24.873Z,25.39
2022-09-27T15:08:30.262Z,28.56
2022-09-27T15:11:33.611Z,23.05
2022-09-27T15:14:41.102Z,18.44
2022-09-27T15:17:44.818Z,16.20
2022-09-27T15:20:54.517Z,14.39
2022-09-27T15:23:58.777Z,13.74
2022-09-27T15:27:01.341Z,13.74
2022-09-27T15:30:06.392Z,13.74
2022-09-27T15:33:20.534Z,13.67
2022-09-27T15:36:52.164Z,13.04
2022-09-27T15:39:54.965Z,13.02
2022-09-27T15:42:59.399Z,13.21
2022-09-27T15:46:05.512Z,13.50
2022-09-27T15:49:33.543Z,13.44
2022-09-27T15:52:43.459Z,13.01
2022-09-27T15:55:46.140Z,12.51
2022-09-27T15:58:48.662Z,12.33
2022-09-27T16:01:56.375Z,12.30
2022-09-27T16:04:59.210Z,12.19
2022-09-27T16:08:02.453Z,12.16
2022-09-27T16:11:05.734Z,12.16
2022-09-27T16:14:08.366Z,12.34
2022-09-27T16:17:12.356Z,12.05
2022-09-27T16:20:19.486Z,11.99
2022-09-27T16:23:22.060Z,11.79
2022-09-27T16:26:24.571Z,11.66
2022-09-27T16:29:27.441Z,11.49
2022-09-27T16:32:31.310Z,11.45
2022-09-27T16:35:33.948Z,11.39
2022-09-27T16:38:36.551Z,11.48
2022-09-27T16:41:41.104Z,11.65
2022-09-27T16:44:43.901Z,11.70
2022-09-27T16:47:48.044Z,11.69
2022-09-27T16:51:08.454Z,11.59
2022-09-27T16:54:11.210Z,11.52
2022-09-27T16:57:14.181Z,11.36
2022-09-27T17:00:17.405Z,11.25
2022-09-27T17:03:21.551Z,11.20
2022-09-27T17:06:24.467Z,11.12
2022-09-27T17:09:27.317Z,11.06
2022-09-27T17:12:29.958Z,10.86
2022-09-27T17:15:32.607Z,10.74
2022-09-27T17:18:36.617Z,10.80
2022-09-27T17:21:39.624Z,10.88
2022-09-27T17:24:42.310Z,10.98
2022-09-27T17:27:45.026Z,11.05
2022-09-27T17:30:47.797Z,11.11
2022-09-27T17:33:57.429Z,11.12
2022-09-27T17:37:01.550Z,11.21
2022-09-27T17:40:04.567Z,11.22
2022-09-27T17:43:07.320Z,11.14
2022-09-27T17:46:11.293Z,11.08
2022-09-27T17:49:33.271Z,11.10
2022-09-27T17:52:36.040Z,10.99
2022-09-27T17:55:38.799Z,10.95
2022-09-27T17:58:41.655Z,11.04
2022-09-27T18:01:45.394Z,11.05
2022-09-27T18:04:49.464Z,10.98
2022-09-27T18:07:52.109Z,10.65
2022-09-27T18:10:55.176Z,10.43
2022-09-27T18:14:00.498Z,10.16
2022-09-27T18:17:03.074Z,10.05
2022-09-27T18:20:07.902Z,10.04
2022-09-27T18:23:10.755Z,10.02
2022-09-27T18:26:13.297Z,10.00
2022-09-27T18:29:18.161Z,10.00
2022-09-27T18:32:20.809Z,10.02
2022-09-27T18:35:24.843Z,10.07
2022-09-27T18:38:27.524Z,10.01
2022-09-27T18:41:32.063Z,10.04
2022-09-27T18:44:34.974Z,10.06
2022-09-27T18:47:37.568Z,9.93
2022-09-27T18:50:41.587Z,9.88
2022-09-27T18:53:44.898Z,9.85
2022-09-27T18:56:48.488Z,9.75
2022-09-27T18:59:51.921Z,9.68
2022-09-27T19:02:54.651Z,9.41
2022-09-27T19:05:59.689Z,9.33
2022-09-27T19:09:03.740Z,9.29
2022-09-27T19:12:06.506Z,9.19
2022-09-27T19:15:10.683Z,9.13
2022-09-27T19:18:13.477Z,9.18
2022-09-27T19:21:18.771Z,9.06
2022-09-27T19:24:21.922Z,9.07
2022-09-27T19:27:24.449Z,9.03
2022-09-27T19:30:27.309Z,9.06
2022-09-27T19:33:30.083Z,8.97
2022-09-27T19:36:34.248Z,8.79
2022-09-27T19:39:36.777Z,8.67
2022-09-27T19:42:39.434Z,8.77
2022-09-27T19:45:42.170Z,8.65
2022-09-27T19:48:46.188Z,8.42
2022-09-27T19:51:52.060Z,8.47
2022-09-27T19:54:54.759Z,8.34
2022-09-27T19:57:58.021Z,8.38
2022-09-27T20:01:02.608Z,8.28
2022-09-27T20:04:05.741Z,8.26
2022-09-27T20:07:09.814Z,8.38
2022-09-27T20:10:12.823Z,8.57
2022-09-27T20:13:15.384Z,8.75
2022-09-27T20:16:19.504Z,8.79
2022-09-27T20:19:22.658Z,8.73
2022-09-27T20:22:26.525Z,8.65
2022-09-27T20:25:29.643Z,8.50
2022-09-27T20:28:32.342Z,8.53
2022-09-27T20:31:37.911Z,8.47
2022-09-27T20:34:41.199Z,8.47
2022-09-27T20:37:45.170Z,8.46
2022-09-27T20:40:54.160Z,8.42
2022-09-27T20:43:58.346Z,8.51
2022-09-27T20:47:00.938Z,8.52
2022-09-27T20:50:04.238Z,8.70
2022-09-27T20:53:08.310Z,8.80
2022-09-27T20:56:17.449Z,8.82
2022-09-27T20:59:21.846Z,8.79
2022-09-27T21:02:24.858Z,8.71
2022-09-27T21:05:27.514Z,8.71
2022-09-27T21:08:33.119Z,8.75
2022-09-27T21:11:36.052Z,8.71
2022-09-27T21:14:38.819Z,8.67
2022-09-27T21:17:41.430Z,8.71
2022-09-27T21:20:44.722Z,8.74
2022-09-27T21:23:49.289Z,8.85
2022-09-27T21:26:53.276Z,8.92
2022-09-27T21:29:55.754Z,9.00
2022-09-27T21:32:58.825Z,9.10
2022-09-27T21:36:02.126Z,9.20
2022-09-27T21:39:08.342Z,9.26
2022-09-27T21:42:10.924Z,9.35
2022-09-27T21:45:13.510Z,9.44
2022-09-27T21:48:16.244Z,9.52
2022-09-27T21:51:20.935Z,9.51
2022-09-27T21:54:24.958Z,9.48
2022-09-27T21:57:27.691Z,9.47
2022-09-27T22:00:30.389Z,9.38
2022-09-27T22:03:35.205Z,9.37
2022-09-27T22:06:39.288Z,9.14
2022-09-27T22:09:43.192Z,9.05
2022-09-27T22:12:45.754Z,9.01
2022-09-27T22:15:50.312Z,9.00
2022-09-27T22:18:54.784Z,9.03
2022-09-27T22:21:57.318Z,8.97
2022-09-27T22:25:01.432Z,8.86
2022-09-27T22:28:04.389Z,8.93
2022-09-27T22:31:08.212Z,8.87
2022-09-27T22:34:17.115Z,8.98
2022-09-27T22:37:19.978Z,8.90
2022-09-27T22:40:23.999Z,8.92
2022-09-27T22:43:27.242Z,8.94
2022-09-27T22:46:30.049Z,8.98
2022-09-27T22:49:32.608Z,8.95
2022-09-27T22:52:35.716Z,8.92
2022-09-27T22:55:39.631Z,8.98
2022-09-27T22:58:43.942Z,8.91
2022-09-27T23:01:46.630Z,8.92
2022-09-27T23:04:49.869Z,8.93
2022-09-27T23:07:53.401Z,8.97
2022-09-27T23:11:03.965Z,8.99
2022-09-27T23:14:06.979Z,9.04
2022-09-27T23:17:09.575Z,9.03
2022-09-27T23:20:13.490Z,9.00
2022-09-27T23:23:16.176Z,9.11
2022-09-27T23:26:24.083Z,9.07
2022-09-27T23:29:26.783Z,9.21
2022-09-27T23:32:31.786Z,9.32
2022-09-27T23:35:34.941Z,9.25
2022-09-27T23:38:40.241Z,9.24
2022-09-27T23:41:44.246Z,9.32
2022-09-27T23:44:46.762Z,9.30
2022-09-27T23:47:49.533Z,9.38
2022-09-27T23:50:53.076Z,9.44
2022-09-27T23:53:57.281Z,9.53
2022-09-27T23:57:01.443Z,9.52
